Time;durP1;ratioP1;P1;durP2;ratioP2;P2;SDS_P1;SDS_P2;PMS_P1;PMS_P2;Temp;Humidity;BMP_temperature;BMP_pressure;BME280_temperature;BME280_humidity;BME280_pressure;Samples;Min_cycle;Max_cycle;Signal;HPM_P1;HPM_P2
2022/07/07 00:01:42;;;;;;;2.40;2.03;;;;;;;17.34;71.19;101977.41;5092426;28;20533;-83
2022/07/07 00:04:08;;;;;;;3.03;2.23;;;;;;;17.39;71.25;101986.03;5092466;28;20586;-83
2022/07/07 00:06:34;;;;;;;3.67;2.40;;;;;;;17.37;71.48;101979.97;5091781;28;20381;-84
2022/07/07 00:09:01;;;;;;;3.47;2.60;;;;;;;17.35;70.65;101973.88;5083949;28;20024;-83
2022/07/07 00:11:29;;;;;;;4.43;3.00;;;;;;;17.31;70.49;101964.38;5076186;28;20021;-83
2022/07/07 00:13:55;;;;;;;3.80;3.10;;;;;;;17.32;72.05;101971.38;5067907;28;20025;-84
2022/07/07 00:16:20;;;;;;;3.55;2.67;;;;;;;17.31;70.80;101974.88;5096560;28;20353;-83
2022/07/07 00:18:48;;;;;;;3.60;2.73;;;;;;;17.32;73.18;101971.38;5095413;28;20035;-84
2022/07/07 00:21:14;;;;;;;4.20;3.10;;;;;;;17.28;72.85;101961.84;5075397;28;20408;-83
2022/07/07 00:23:40;;;;;;;3.70;2.90;;;;;;;17.27;72.13;101960.09;5075858;28;20092;-83
2022/07/07 00:26:05;;;;;;;3.25;2.42;;;;;;;17.29;70.92;101961.78;5075333;28;20027;-84
2022/07/07 00:28:31;;;;;;;2.40;2.20;;;;;;;17.32;72.36;101953.00;5076220;28;20036;-83
2022/07/07 00:31:02;;;;;;;5.43;3.47;;;;;;;17.30;72.72;101944.28;5075639;28;20059;-84
2022/07/07 00:33:28;;;;;;;3.67;2.55;;;;;;;17.27;72.25;101931.25;5075277;28;20377;-83
2022/07/07 00:35:53;;;;;;;4.20;2.33;;;;;;;17.32;71.84;101936.38;5075739;28;20107;-84
2022/07/07 00:38:19;;;;;;;3.57;2.80;;;;;;;17.26;73.99;101922.53;5075912;28;20419;-84
2022/07/07 00:40:52;;;;;;;4.57;2.95;;;;;;;17.27;71.67;101923.38;5074905;28;20025;-83
2022/07/07 00:43:18;;;;;;;3.15;2.50;;;;;;;17.25;72.41;101920.81;5078961;28;20044;-83
2022/07/07 00:45:47;;;;;;;3.53;2.60;;;;;;;17.27;72.35;101924.25;5096013;28;20338;-83
2022/07/07 00:48:14;;;;;;;3.08;2.20;;;;;;;17.29;72.11;101921.59;5095190;28;20107;-83
2022/07/07 00:50:39;;;;;;;2.75;2.38;;;;;;;17.34;72.25;101931.94;5095481;28;20468;-83
2022/07/07 00:53:04;;;;;;;2.30;2.10;;;;;;;17.28;72.09;101915.47;5092179;28;20031;-83
2022/07/07 00:55:29;;;;;;;2.07;1.87;;;;;;;17.32;71.86;101916.25;5095297;28;20106;-83
2022/07/07 00:57:55;;;;;;;2.43;2.13;;;;;;;17.33;73.25;101907.50;5095687;28;20496;-83
2022/07/07 01:00:20;;;;;;;2.63;2.17;;;;;;;17.35;72.31;101910.91;5095828;28;20039;-84
2022/07/07 01:02:52;;;;;;;2.70;2.33;;;;;;;17.36;73.78;101907.38;5094775;28;20067;-83
2022/07/07 01:05:18;;;;;;;3.47;2.45;;;;;;;17.36;73.44;101909.16;5095636;28;20031;-83
2022/07/07 01:07:45;;;;;;;2.63;2.15;;;;;;;17.31;72.67;101919.78;5095288;28;20016;-83
2022/07/07 01:10:10;;;;;;;4.38;2.80;;;;;;;17.34;72.96;101916.22;5094971;28;20384;-83
2022/07/07 01:12:38;;;;;;;4.60;2.53;;;;;;;17.34;73.19;101917.06;5094478;28;20047;-83
2022/07/07 01:15:04;;;;;;;2.88;2.33;;;;;;;17.34;72.46;101919.69;5075064;28;20020;-83
2022/07/07 01:17:30;;;;;;;;;;;;;;;17.35;72.18;101915.31;5074993;28;20031;-84
2022/07/07 01:19:55;;;;;;;2.00;1.83;;;;;;;17.33;72.82;101914.50;5074136;28;19916;-83
2022/07/07 01:22:24;;;;;;;2.07;1.97;;;;;;;17.35;72.43;101913.53;5074602;28;20105;-83
2022/07/07 01:24:50;;;;;;;2.40;2.20;;;;;;;17.34;73.14;101909.19;5075061;28;20017;-83
2022/07/07 01:27:17;;;;;;;3.00;2.27;;;;;;;17.29;73.28;101908.47;5075280;28;20043;-83
2022/07/07 01:29:47;;;;;;;2.58;2.30;;;;;;;17.34;72.99;101913.59;5074065;28;20389;-83
2022/07/07 01:32:13;;;;;;;1.85;1.75;;;;;;;17.36;72.01;101914.41;5074750;28;20033;-83
2022/07/07 01:34:40;;;;;;;2.00;1.80;;;;;;;17.37;74.02;101897.78;5074398;28;20027;-83
2022/07/07 01:37:06;;;;;;;2.28;2.08;;;;;;;17.33;72.87;101893.50;5074168;28;20032;-83
2022/07/07 01:39:32;;;;;;;2.00;1.87;;;;;;;17.35;74.45;101894.31;5074398;28;20029;-83
2022/07/07 01:41:58;;;;;;;2.13;1.98;;;;;;;17.32;72.92;101883.91;5051917;28;20032;-83
2022/07/07 01:44:23;;;;;;;3.77;2.40;;;;;;;17.33;73.61;101893.50;5041364;28;20116;-83
2022/07/07 01:46:49;;;;;;;2.93;2.17;;;;;;;17.28;72.60;101877.88;5033472;28;20033;-83
2022/07/07 01:49:14;;;;;;;2.43;2.13;;;;;;;17.31;74.29;101880.44;5034587;28;20537;-84
2022/07/07 01:51:40;;;;;;;2.57;2.20;;;;;;;17.27;73.58;101876.16;5040489;28;20083;-84
2022/07/07 01:54:05;;;;;;;2.60;2.03;;;;;;;17.33;73.78;101891.75;5054507;28;20040;-83
2022/07/07 01:56:30;;;;;;;2.77;2.23;;;;;;;17.32;74.30;101886.53;5054599;28;20036;-83
2022/07/07 01:58:56;;;;;;;3.03;2.37;;;;;;;17.30;73.48;101881.34;5053308;28;20099;-83
2022/07/07 02:01:21;;;;;;;2.00;1.80;;;;;;;17.34;72.67;101880.31;5037039;28;20022;-83
2022/07/07 02:03:55;;;;;;;1.87;1.60;;;;;;;17.35;75.39;101884.69;5033960;28;20018;-84
2022/07/07 02:06:21;;;;;;;1.85;1.75;;;;;;;17.31;73.02;101880.44;5033605;28;20028;-83
2022/07/07 02:08:46;;;;;;;1.97;1.83;;;;;;;17.31;75.37;101872.56;5034227;28;20112;-83
2022/07/07 02:11:14;;;;;;;2.47;1.90;;;;;;;17.34;73.40;101882.09;5047309;28;20040;-83
2022/07/07 02:13:48;;;;;;;2.15;1.95;;;;;;;17.31;74.26;101872.56;5053049;28;20468;-83
2022/07/07 02:16:16;;;;;;;2.08;1.90;;;;;;;17.34;73.21;101880.31;5048388;28;20060;-83
2022/07/07 02:18:42;;;;;;;1.65;1.55;;;;;;;17.29;73.57;101872.59;5053178;28;20091;-83
2022/07/07 02:21:09;;;;;;;1.52;1.50;;;;;;;17.30;73.91;101865.59;5036529;28;20116;-83
2022/07/07 02:23:35;;;;;;;1.67;1.58;;;;;;;17.33;74.02;101864.63;5033837;28;20083;-83
2022/07/07 02:26:01;;;;;;;1.85;1.73;;;;;;;17.34;74.59;101875.06;5032951;28;20029;-83
2022/07/07 02:28:27;;;;;;;1.70;1.60;;;;;;;17.31;74.41;101869.94;5033923;28;20443;-83
2022/07/07 02:30:56;;;;;;;2.07;1.87;;;;;;;17.29;76.61;101869.13;5033305;28;20026;-84
2022/07/07 02:33:25;;;;;;;2.35;2.10;;;;;;;17.29;75.44;101864.72;5033235;28;20025;-83
2022/07/07 02:35:51;;;;;;;2.00;1.80;;;;;;;17.26;74.57;101859.56;5033626;28;20373;-83
2022/07/07 02:38:17;;;;;;;1.92;1.73;;;;;;;17.32;74.54;101861.16;5033545;28;20113;-83
2022/07/07 02:40:43;;;;;;;2.65;1.73;;;;;;;17.36;74.22;101859.31;5042031;28;20120;-83
2022/07/07 02:43:15;;;;;;;1.60;1.50;;;;;;;17.34;75.00;101856.72;5055218;28;20025;-83
2022/07/07 02:45:41;;;;;;;1.60;1.50;;;;;;;17.32;73.59;101858.53;5073287;28;20031;-83
2022/07/07 02:48:08;;;;;;;2.67;2.00;;;;;;;17.39;75.84;101873.19;5072918;28;20021;-84
2022/07/07 02:50:34;;;;;;;1.80;1.70;;;;;;;17.37;74.98;101867.13;5073197;28;20499;-83
2022/07/07 02:52:59;;;;;;;1.70;1.60;;;;;;;17.40;74.92;101859.19;5072447;28;20107;-83
2022/07/07 02:55:27;;;;;;;1.47;1.37;;;;;;;17.42;74.82;101865.25;5072480;28;20385;-83
2022/07/07 02:57:52;;;;;;;1.65;1.55;;;;;;;17.42;75.27;101867.00;5072298;28;20472;-83
2022/07/07 03:00:18;;;;;;;1.40;1.40;;;;;;;17.42;75.63;101875.75;5071724;28;20030;-83
2022/07/07 03:02:43;;;;;;;2.40;1.77;;;;;;;17.42;75.74;101869.63;5072177;28;20384;-85
2022/07/07 03:05:11;;;;;;;2.50;2.00;;;;;;;17.41;76.10;101868.78;5072971;28;20028;-83
2022/07/07 03:07:36;;;;;;;2.38;2.00;;;;;;;17.40;76.80;101871.44;5072991;28;20539;-84
2022/07/07 03:10:02;;;;;;;4.07;2.10;;;;;;;17.37;76.07;101869.75;5071606;28;20104;-85
2022/07/07 03:12:27;;;;;;;2.40;2.20;;;;;;;17.33;76.93;101872.50;5072907;28;20024;-84
2022/07/07 03:14:53;;;;;;;2.23;2.03;;;;;;;17.32;76.60;101887.41;5072074;28;20021;-84
2022/07/07 03:17:18;;;;;;;2.00;1.80;;;;;;;17.28;76.49;101891.84;5072943;28;20496;-84
2022/07/07 03:19:43;;;;;;;2.00;1.70;;;;;;;17.20;77.42;101882.47;5072595;28;20016;-83
2022/07/07 03:22:08;;;;;;;2.83;2.03;;;;;;;17.13;76.54;101879.16;5072336;28;20644;-84
2022/07/07 03:24:34;;;;;;;2.50;1.90;;;;;;;17.04;76.61;101879.41;5060004;28;20040;-85
2022/07/07 03:26:59;;;;;;;1.90;1.80;;;;;;;16.99;78.12;101890.00;5070157;28;20024;-84
2022/07/07 03:29:25;;;;;;;2.00;1.80;;;;;;;16.85;78.52;101881.59;5072263;28;20495;-84
2022/07/07 03:31:51;;;;;;;1.63;1.53;;;;;;;16.77;78.26;101880.03;5072561;28;20107;-84
2022/07/07 03:34:16;;;;;;;1.90;1.80;;;;;;;16.69;79.65;101874.09;5072891;28;20109;-84
2022/07/07 03:36:41;;;;;;;1.63;1.53;;;;;;;16.64;78.90;101886.47;5071499;28;20024;-84
2022/07/07 03:39:06;;;;;;;1.77;1.67;;;;;;;16.61;79.00;101886.53;5072690;28;20128;-84
2022/07/07 03:41:32;;;;;;;1.40;1.30;;;;;;;16.61;77.73;101889.16;5072028;28;20025;-84
2022/07/07 03:43:57;;;;;;;1.60;1.50;;;;;;;16.57;81.96;101882.25;5062364;28;20132;-83
2022/07/07 03:46:23;;;;;;;1.75;1.65;;;;;;;16.50;81.81;101876.28;5052957;28;20045;-84
2022/07/07 03:48:49;;;;;;;1.60;1.50;;;;;;;16.47;81.55;101885.09;5052378;28;20116;-84
2022/07/07 03:51:14;;;;;;;1.80;1.70;;;;;;;16.41;81.94;101877.41;5051760;28;20025;-83
2022/07/07 03:53:39;;;;;;;1.80;1.70;;;;;;;16.38;81.82;101880.09;5052261;28;20115;-83
2022/07/07 03:56:05;;;;;;;1.93;1.70;;;;;;;16.37;81.35;101875.72;5050276;28;20079;-84
2022/07/07 03:58:30;;;;;;;1.60;1.50;;;;;;;16.33;81.97;101882.81;5051032;28;20021;-84
2022/07/07 04:00:55;;;;;;;1.60;1.50;;;;;;;16.37;80.88;101888.84;5052281;28;20075;-84
2022/07/07 04:03:20;;;;;;;1.63;1.37;;;;;;;16.34;82.00;101878.41;5052490;28;20094;-83
2022/07/07 04:05:46;;;;;;;1.60;1.50;;;;;;;16.31;81.75;101868.88;5051420;28;20377;-83
2022/07/07 04:08:11;;;;;;;1.30;1.20;;;;;;;16.29;81.93;101860.19;5052341;28;20021;-84
2022/07/07 04:10:36;;;;;;;1.43;1.33;;;;;;;16.27;81.31;101863.75;5043360;28;20030;-83
2022/07/07 04:13:01;;;;;;;1.20;1.20;;;;;;;16.28;81.80;101858.47;5049413;28;20451;-85
2022/07/07 04:15:30;;;;;;;1.43;1.40;;;;;;;16.23;81.75;101849.00;5052568;28;20025;-84
2022/07/07 04:17:55;;;;;;;1.48;1.20;;;;;;;16.27;80.61;101861.97;5051917;28;20071;-84
2022/07/07 04:20:20;;;;;;;1.37;1.27;;;;;;;16.26;81.63;101862.91;5051537;28;20056;-85
2022/07/07 04:22:48;;;;;;;1.00;1.00;;;;;;;16.29;83.05;101856.72;5071653;28;20428;-85
2022/07/07 04:25:14;;;;;;;1.05;1.05;;;;;;;16.28;81.73;101857.63;5071180;28;20492;-84
2022/07/07 04:27:39;;;;;;;0.90;0.90;;;;;;;16.23;81.83;101851.59;5072027;28;20028;-84
2022/07/07 04:30:11;;;;;;;1.40;1.30;;;;;;;16.26;82.25;101851.53;5072272;28;20162;-84
2022/07/07 04:32:37;;;;;;;1.05;1.00;;;;;;;16.26;81.36;101859.41;5071166;28;20100;-83
2022/07/07 04:35:02;;;;;;;0.97;0.97;;;;;;;16.25;81.61;101862.91;5066839;28;20108;-85
2022/07/07 04:37:27;;;;;;;0.70;0.70;;;;;;;16.27;80.09;101871.59;5052107;28;20385;-85
2022/07/07 04:39:53;;;;;;;0.70;0.63;;;;;;;16.27;80.78;101874.22;5050892;28;20025;-85
2022/07/07 04:42:18;;;;;;;0.93;0.90;;;;;;;16.23;80.44;101881.28;5052246;28;20036;-86
2022/07/07 04:44:43;;;;;;;1.23;1.13;;;;;;;16.25;84.08;101884.75;5051592;28;20485;-87
2022/07/07 04:47:09;;;;;;;3.60;1.73;;;;;;;16.26;84.96;101903.94;5051446;28;20025;-85
2022/07/07 04:49:34;;;;;;;2.03;1.83;;;;;;;16.12;85.47;101888.53;5052818;28;20027;-88
2022/07/07 04:51:59;;;;;;;1.90;1.73;;;;;;;16.09;84.91;101897.31;5051738;28;20052;-86
2022/07/07 04:54:24;;;;;;;1.70;1.60;;;;;;;16.07;85.06;101899.09;5051504;28;20112;-87
2022/07/07 04:56:50;;;;;;;1.60;1.50;;;;;;;16.02;85.36;101899.22;5053940;28;20021;-87
2022/07/07 04:59:15;;;;;;;1.90;1.60;;;;;;;16.02;84.75;101912.31;5056026;28;20040;-86
2022/07/07 05:01:40;;;;;;;2.50;1.57;;;;;;;15.96;85.88;101903.72;5054631;28;20141;-86
2022/07/07 05:04:06;;;;;;;1.60;1.50;;;;;;;15.97;84.59;101902.81;5055407;28;20032;-86
2022/07/07 05:06:32;;;;;;;1.50;1.30;;;;;;;15.98;85.60;101901.94;5053510;28;20021;-87
2022/07/07 05:08:58;;;;;;;0.98;0.98;;;;;;;16.01;84.56;101907.94;5054058;28;20037;-87
2022/07/07 05:11:23;;;;;;;1.37;1.27;;;;;;;16.05;86.26;101919.22;5055571;28;20067;-87
2022/07/07 05:13:48;;;;;;;2.43;1.37;;;;;;;15.96;86.13;101914.19;5055077;28;20044;-87
2022/07/07 05:16:13;;;;;;;1.37;1.27;;;;;;;15.97;85.92;101919.38;5054700;28;20033;-87
2022/07/07 05:18:41;;;;;;;3.23;1.30;;;;;;;15.91;86.17;101911.66;5055034;28;20036;-88
2022/07/07 05:21:07;;;;;;;1.23;1.10;;;;;;;15.92;85.65;101923.84;5055417;28;20021;-88
2022/07/07 05:23:32;;;;;;;1.17;1.00;;;;;;;16.00;86.91;101942.88;5054510;28;20017;-87
2022/07/07 05:25:57;;;;;;;2.07;1.40;;;;;;;15.95;87.14;101934.25;5055088;28;20017;-88
2022/07/07 05:28:23;;;;;;;3.40;1.30;;;;;;;15.99;86.09;101935.03;5055351;28;20112;-87
2022/07/07 05:30:54;;;;;;;1.57;1.20;;;;;;;16.10;87.57;101932.22;5045727;28;20152;-90
2022/07/07 05:33:19;;;;;;;2.47;1.20;;;;;;;16.10;86.47;101933.06;5034898;28;20021;-87
2022/07/07 05:35:44;;;;;;;1.37;1.17;;;;;;;16.16;86.06;101929.44;5034477;28;20079;-89
2022/07/07 05:38:10;;;;;;;2.50;1.23;;;;;;;16.15;85.94;101933.84;5035058;28;20485;-89
2022/07/07 05:40:35;;;;;;;4.50;1.30;;;;;;;16.24;84.94;101947.63;5034775;28;20037;-87
2022/07/07 05:43:01;;;;;;;1.50;1.10;;;;;;;16.32;85.60;101946.56;5034002;28;20025;-87
2022/07/07 05:45:26;;;;;;;2.83;1.23;;;;;;;16.36;85.36;101944.75;5054443;28;20045;-87
2022/07/07 05:47:51;;;;;;;2.97;1.40;;;;;;;16.46;84.82;101954.13;5054556;28;20029;-87
2022/07/07 05:50:20;;;;;;;0.80;0.70;;;;;;;16.49;84.94;101964.53;5054083;28;20108;-88
2022/07/07 05:52:45;;;;;;;1.55;1.17;;;;;;;16.46;83.90;101969.00;5054491;28;20028;-89
2022/07/07 05:55:10;;;;;;;2.67;1.17;;;;;;;16.40;83.93;101969.09;5054492;28;20111;-87
2022/07/07 05:57:36;;;;;;;3.13;1.43;;;;;;;16.39;83.72;101980.47;5054021;28;20457;-88
2022/07/07 06:00:02;;;;;;;3.10;1.10;;;;;;;16.35;84.04;101974.44;5053545;28;20025;-89
2022/07/07 06:02:36;;;;;;;2.03;1.30;;;;;;;16.32;84.76;101985.00;5054487;28;20177;-90
2022/07/07 06:05:03;;;;;;;2.90;1.30;;;;;;;16.17;85.60;101983.56;5054786;28;20060;-89
2022/07/07 06:07:28;;;;;;;4.50;1.67;;;;;;;16.10;85.12;101990.66;5053999;28;20029;-92
2022/07/07 06:09:59;;;;;;;3.23;1.30;;;;;;;16.11;85.60;101997.63;5054372;28;20075;-89
2022/07/07 06:12:24;;;;;;;3.00;1.40;;;;;;;16.04;85.54;101982.94;5053737;28;20108;-88
2022/07/07 06:14:50;;;;;;;1.77;1.00;;;;;;;16.09;85.07;101996.81;5053845;28;20113;-86
2022/07/07 06:17:22;;;;;;;2.00;1.10;;;;;;;16.17;84.67;102005.38;5054153;28;20025;-87
2022/07/07 06:19:48;;;;;;;5.47;1.67;;;;;;;16.28;85.17;102020.00;5053247;28;20043;-84
2022/07/07 06:22:14;;;;;;;1.83;1.27;;;;;;;16.35;84.80;102017.25;5053795;28;20029;-84
2022/07/07 06:24:41;;;;;;;1.27;1.02;;;;;;;16.42;84.40;102022.34;5053420;28;20480;-83
2022/07/07 06:27:06;;;;;;;3.70;1.55;;;;;;;16.40;83.38;102025.00;5053859;28;20018;-83
2022/07/07 06:29:31;;;;;;;4.97;1.47;;;;;;;16.47;83.42;102031.84;5053515;28;20457;-84
2022/07/07 06:31:57;;;;;;;3.40;1.40;;;;;;;16.43;82.88;102027.56;5052130;28;20040;-84
2022/07/07 06:34:31;;;;;;;2.47;1.27;;;;;;;16.52;82.62;102039.59;5053549;28;20078;-84
2022/07/07 06:37:05;;;;;;;3.50;1.50;;;;;;;16.54;81.91;102045.66;5053034;28;20040;-82
2022/07/07 06:39:31;;;;;;;3.15;1.10;;;;;;;16.52;80.09;102044.84;5052798;28;20029;-83
2022/07/07 06:41:56;;;;;;;2.83;1.67;;;;;;;16.52;80.83;102042.22;5053483;28;20025;-83
2022/07/07 06:44:21;;;;;;;4.10;1.43;;;;;;;16.54;80.49;102047.44;5073925;28;20442;-84
2022/07/07 06:46:49;;;;;;;4.43;1.47;;;;;;;16.61;80.35;102065.59;5092623;28;20546;-84
2022/07/07 06:49:14;;;;;;;8.68;1.88;;;;;;;16.48;77.81;102079.88;5093494;28;20024;-83
2022/07/07 06:51:40;;;;;;;5.43;1.80;;;;;;;16.40;78.79;102074.78;5093272;28;20024;-83
2022/07/07 06:54:05;;;;;;;7.90;1.57;;;;;;;16.23;80.16;102076.84;5093180;28;20035;-86
2022/07/07 06:56:30;;;;;;;4.80;1.67;;;;;;;16.20;81.29;102083.03;5093701;28;20016;-86
2022/07/07 06:58:56;;;;;;;3.70;1.30;;;;;;;16.18;83.21;102076.94;5093347;28;20123;-87
2022/07/07 07:01:32;;;;;;;3.50;1.13;;;;;;;16.23;83.19;102069.00;5077225;28;20028;-87
2022/07/07 07:04:09;;;;;;;3.40;1.20;;;;;;;16.52;83.38;102071.03;5073032;28;20111;-86
2022/07/07 07:06:44;;;;;;;5.82;1.40;;;;;;;16.80;81.40;102071.31;5073324;28;20057;-86
2022/07/07 07:09:19;;;;;;;6.20;1.67;;;;;;;17.00;79.91;102056.91;5072307;28;20090;-85
2022/07/07 07:11:56;;;;;;;3.85;1.10;;;;;;;17.42;80.19;102067.31;5072807;28;20017;-85
2022/07/07 07:14:33;;;;;;;2.70;1.30;;;;;;;17.50;79.03;102072.38;5066900;28;20036;-87
2022/07/07 07:16:59;;;;;;;3.35;1.35;;;;;;;17.54;77.80;102068.75;5066328;28;20017;-87
2022/07/07 07:19:24;;;;;;;3.43;1.00;;;;;;;17.62;76.82;102076.44;5071657;28;20063;-88
2022/07/07 07:21:49;;;;;;;2.90;1.43;;;;;;;17.59;75.49;102064.28;5072929;28;20120;-89
2022/07/07 07:24:15;;;;;;;3.27;1.30;;;;;;;17.67;76.67;102084.19;5073561;28;20032;-90
2022/07/07 07:29:15;;;;;;;4.93;1.30;;;;;;;17.27;74.80;102091.28;5860207;23;20049;-82
2022/07/07 07:31:41;;;;;;;2.80;1.27;;;;;;;17.16;74.67;102098.53;5018499;28;20026;-83
2022/07/07 07:34:06;;;;;;;4.47;1.60;;;;;;;17.04;75.58;102105.78;5032300;28;20029;-83
2022/07/07 07:36:31;;;;;;;6.37;1.50;;;;;;;16.92;74.14;102112.16;5015168;28;20057;-83
2022/07/07 07:38:58;;;;;;;2.70;1.30;;;;;;;17.10;75.82;102123.16;5012586;28;20412;-83
2022/07/07 07:41:23;;;;;;;6.13;1.33;;;;;;;17.25;73.16;102109.69;5013061;28;20365;-82
2022/07/07 07:43:48;;;;;;;5.60;1.47;;;;;;;17.35;73.72;102119.97;5012761;28;20032;-83
2022/07/07 07:46:14;;;;;;;5.73;1.57;;;;;;;17.34;74.14;102111.22;5012688;28;20030;-83
2022/07/07 07:48:39;;;;;;;3.03;1.20;;;;;;;17.32;73.58;102123.53;5011744;28;20060;-84
2022/07/07 07:51:05;;;;;;;6.10;1.53;;;;;;;17.34;73.84;102121.72;5010764;28;20485;-84
2022/07/07 07:53:30;;;;;;;6.40;1.50;;;;;;;17.48;74.31;102120.53;5012749;28;20022;-85
2022/07/07 07:55:55;;;;;;;2.37;1.20;;;;;;;17.57;73.71;102122.94;5012222;28;20034;-86
2022/07/07 07:58:21;;;;;;;2.83;1.23;;;;;;;17.59;72.51;102114.16;5012637;28;20044;-86
2022/07/07 08:00:46;;;;;;;2.87;1.10;;;;;;;17.59;73.94;102118.50;5012142;28;20034;-86
2022/07/07 08:03:11;;;;;;;6.93;1.70;;;;;;;17.33;72.90;102143.63;5012213;28;20053;-85
2022/07/07 08:05:36;;;;;;;4.70;1.30;;;;;;;17.12;76.67;102143.19;5011853;28;20030;-84
2022/07/07 08:08:02;;;;;;;2.63;1.20;;;;;;;17.02;78.12;102136.44;5012275;28;20018;-84
2022/07/07 08:10:27;;;;;;;3.37;1.30;;;;;;;16.81;76.54;102127.25;5012222;28;20034;-85
2022/07/07 08:12:53;;;;;;;1.63;1.10;;;;;;;16.75;77.50;102132.59;5011574;28;20037;-84
2022/07/07 08:15:18;;;;;;;3.80;1.37;;;;;;;16.62;76.47;102134.63;5012699;28;20029;-85
2022/07/07 08:17:44;;;;;;;3.30;1.10;;;;;;;16.59;77.06;102142.53;5012794;28;20022;-83
2022/07/07 08:20:10;;;;;;;1.63;0.80;;;;;;;16.65;77.31;102147.69;5011690;28;20481;-86
2022/07/07 08:22:36;;;;;;;1.40;0.90;;;;;;;16.74;77.06;102159.72;5012839;28;20022;-85
2022/07/07 08:25:02;;;;;;;2.03;0.85;;;;;;;16.80;77.46;102160.44;5011720;28;20277;-84
2022/07/07 08:27:36;;;;;;;3.17;1.27;;;;;;;16.83;77.56;102151.69;5012572;28;20087;-84
2022/07/07 08:30:04;;;;;;;3.35;1.15;;;;;;;16.79;76.31;102153.47;5013419;28;20042;-85
2022/07/07 08:32:29;;;;;;;3.45;1.20;;;;;;;16.69;75.26;102154.56;5015714;28;20160;-84
2022/07/07 08:34:55;;;;;;;3.53;1.13;;;;;;;16.57;74.27;102160.03;5016088;28;20105;-86
2022/07/07 08:37:20;;;;;;;3.07;0.90;;;;;;;16.58;74.67;102162.66;5016235;28;20022;-84
2022/07/07 08:39:45;;;;;;;3.13;1.00;;;;;;;16.62;73.58;102163.44;5015580;28;20068;-84
2022/07/07 08:42:12;;;;;;;3.47;0.83;;;;;;;16.58;73.55;102164.41;5016198;28;20474;-83
2022/07/07 08:44:37;;;;;;;1.27;0.82;;;;;;;16.69;75.29;102162.44;5016453;28;20048;-83
2022/07/07 08:47:03;;;;;;;2.30;0.70;;;;;;;16.88;75.60;102168.16;5015566;28;20105;-85
2022/07/07 08:49:29;;;;;;;3.75;0.95;;;;;;;17.00;74.86;102159.19;5015601;28;20010;-84
2022/07/07 08:51:56;;;;;;;1.92;0.85;;;;;;;17.04;73.88;102166.13;5015683;28;20033;-85
2022/07/07 08:54:23;;;;;;;2.28;1.02;;;;;;;17.25;74.88;102163.91;5015903;28;20097;-84
2022/07/07 08:56:49;;;;;;;1.90;0.98;;;;;;;17.66;72.06;102166.47;5016004;28;20025;-85
2022/07/07 08:59:14;;;;;;;5.37;1.43;;;;;;;17.94;73.19;102171.06;5015991;28;20413;-85
2022/07/07 09:01:40;;;;;;;2.47;0.90;;;;;;;18.14;71.82;102165.31;5015150;28;20026;-85
2022/07/07 09:04:06;;;;;;;2.60;1.15;;;;;;;18.14;70.97;102181.06;5015611;28;20076;-84
2022/07/07 09:06:32;;;;;;;1.85;1.10;;;;;;;18.06;69.67;102176.91;5015949;28;20033;-83
2022/07/07 09:08:58;;;;;;;1.55;0.85;;;;;;;17.92;71.17;102189.47;5014639;28;20109;-83
2022/07/07 09:11:31;;;;;;;5.70;1.33;;;;;;;17.41;69.74;102188.94;5015820;28;20363;-83
2022/07/07 09:14:14;;;;;;;3.47;1.10;;;;;;;17.44;72.30;102193.22;5015630;28;20055;-83
2022/07/07 09:16:39;;;;;;;3.63;1.10;;;;;;;17.35;72.08;102183.78;5015604;28;20026;-83
2022/07/07 09:19:21;;;;;;;2.13;0.93;;;;;;;17.41;72.10;102199.41;5015250;28;20072;-83
2022/07/07 09:21:47;;;;;;;2.55;0.63;;;;;;;17.44;71.77;102202.00;5015150;28;20080;-82
2022/07/07 09:24:13;;;;;;;2.25;1.00;;;;;;;17.48;69.89;102207.16;5015191;28;20026;-83
2022/07/07 09:26:47;;;;;;;2.97;1.23;;;;;;;17.45;70.48;102205.47;5015517;28;20058;-83
2022/07/07 09:29:14;;;;;;;3.17;1.20;;;;;;;17.40;70.99;102199.44;5013951;28;20436;-83
2022/07/07 09:31:57;;;;;;;3.67;1.17;;;;;;;17.22;70.96;102213.84;5015234;28;20057;-83
2022/07/07 09:34:25;;;;;;;3.97;1.38;;;;;;;17.16;71.23;102216.59;5015560;28;20026;-83
2022/07/07 09:39:46;;;;;;;3.40;0.90;;;;;;;17.22;72.21;102219.94;5015215;28;20041;-83
2022/07/07 09:42:21;;;;;;;3.33;0.90;;;;;;;17.35;71.80;102222.31;5014325;28;20169;-83
2022/07/07 09:44:55;;;;;;;2.30;0.90;;;;;;;17.52;71.52;102219.31;5015094;28;20041;-83
2022/07/07 09:47:21;;;;;;;1.88;0.70;;;;;;;17.66;71.78;102229.50;5015252;28;20425;-82
2022/07/07 09:50:10;;;;;;;0.85;0.60;;;;;;;17.81;72.24;102242.28;5014428;28;20048;-82
2022/07/07 09:52:38;;;;;;;2.83;1.08;;;;;;;17.83;71.33;102235.22;5014845;28;20029;-82
2022/07/07 09:55:06;;;;;;;2.97;1.00;;;;;;;17.72;69.70;102245.13;5014748;28;20091;-83
2022/07/07 09:57:31;;;;;;;3.35;0.90;;;;;;;17.58;70.31;102248.03;5014424;28;20354;-82
2022/07/07 09:59:56;;;;;;;3.67;0.93;;;;;;;17.63;71.73;102246.19;5014657;28;20025;-82
2022/07/07 10:02:25;;;;;;;2.23;1.00;;;;;;;17.79;71.00;102251.09;5014705;28;20030;-83
2022/07/07 10:04:55;;;;;;;1.67;0.80;;;;;;;17.94;71.61;102257.75;5013602;28;20017;-82
2022/07/07 10:07:23;;;;;;;2.00;0.80;;;;;;;18.06;71.33;102260.97;5014848;28;20030;-84
2022/07/07 10:09:54;;;;;;;3.60;0.93;;;;;;;18.29;71.26;102256.06;5014026;28;20030;-82
2022/07/07 10:12:21;;;;;;;1.50;0.98;;;;;;;18.47;70.63;102259.94;5013761;28;20505;-82
2022/07/07 10:14:47;;;;;;;;;;;;;;;18.50;70.32;102257.25;5015102;28;20030;-83
2022/07/07 10:17:16;;;;;;;1.40;0.90;;;;;;;18.41;69.96;102263.59;5014116;28;20372;-83
2022/07/07 10:19:41;;;;;;;3.08;1.15;;;;;;;18.25;70.07;102264.91;5013693;28;20026;-83
2022/07/07 10:22:08;;;;;;;2.17;0.80;;;;;;;18.13;71.58;102279.19;5014091;28;20044;-83
2022/07/07 10:24:35;;;;;;;2.65;1.00;;;;;;;18.02;72.67;102288.19;5013696;28;20098;-82
2022/07/07 10:27:01;;;;;;;;;;;;;;;17.90;74.64;102294.56;5014351;28;20500;-83
2022/07/07 10:29:46;;;;;;;1.63;0.90;;;;;;;17.72;75.07;102292.38;5014058;28;19918;-83
2022/07/07 10:32:14;;;;;;;2.03;0.88;;;;;;;17.64;75.65;102295.16;5012722;28;20025;-83
2022/07/07 10:34:47;;;;;;;1.58;0.85;;;;;;;17.60;76.38;102302.25;5014038;28;20018;-83
2022/07/07 10:37:13;;;;;;;3.13;0.93;;;;;;;17.67;76.33;102296.84;5014191;28;20029;-83
2022/07/07 10:39:43;;;;;;;2.37;0.87;;;;;;;17.85;77.35;102295.59;5013533;28;20405;-83
2022/07/07 10:42:14;;;;;;;2.95;0.95;;;;;;;18.04;76.37;102307.41;5013910;28;20060;-83
2022/07/07 10:44:47;;;;;;;1.13;0.70;;;;;;;18.14;74.65;102304.56;5014283;28;20073;-83
2022/07/07 10:47:26;;;;;;;1.25;0.77;;;;;;;18.22;74.24;102302.63;5006792;28;20477;-83
2022/07/07 10:49:54;;;;;;;0.95;0.50;;;;;;;18.27;74.34;102305.16;5013611;28;20025;-83
2022/07/07 10:52:22;;;;;;;1.55;0.70;;;;;;;18.25;73.93;102307.78;5011826;28;20064;-83
2022/07/07 10:54:52;;;;;;;1.80;0.80;;;;;;;18.22;74.03;102310.53;5012287;28;20033;-83
2022/07/07 10:57:25;;;;;;;3.20;0.85;;;;;;;18.15;73.82;102319.44;5012482;28;20163;-85
2022/07/07 11:00:09;;;;;;;2.00;1.10;;;;;;;18.02;74.12;102324.97;5012560;28;20077;-84
2022/07/07 11:02:36;;;;;;;2.88;0.95;;;;;;;18.00;74.90;102331.16;5013812;28;20049;-85
2022/07/07 11:05:06;;;;;;;2.78;1.13;;;;;;;17.93;76.05;102338.28;5013162;28;20030;-85
2022/07/07 11:07:31;;;;;;;4.25;1.45;;;;;;;17.82;76.21;102338.53;5012791;28;20480;-85
2022/07/07 11:09:59;;;;;;;2.70;1.10;;;;;;;17.89;76.06;102334.88;5013239;28;20037;-85
2022/07/07 11:12:52;;;;;;;1.70;1.10;;;;;;;18.02;75.01;102340.72;5013070;28;20128;-85
2022/07/07 11:17:47;;;;;;;1.40;0.98;;;;;;;18.14;73.31;102343.97;5012298;28;20095;-85
2022/07/07 11:20:17;;;;;;;2.25;1.40;;;;;;;18.09;74.04;102346.72;5012947;28;20026;-85
2022/07/07 11:22:51;;;;;;;1.90;0.98;;;;;;;18.11;74.06;102350.16;5012543;28;20021;-84
2022/07/07 11:25:19;;;;;;;5.28;1.48;;;;;;;18.04;73.30;102353.84;5013059;28;20448;-85
2022/07/07 11:27:46;;;;;;;2.35;1.48;;;;;;;17.86;75.85;102368.22;5013226;28;20014;-84
2022/07/07 11:30:11;;;;;;;3.30;1.40;;;;;;;17.78;75.25;102370.16;5011785;28;20046;-84
2022/07/07 11:32:42;;;;;;;3.47;1.43;;;;;;;17.68;77.56;102365.06;5013167;28;20547;-84
2022/07/07 11:35:09;;;;;;;6.15;2.03;;;;;;;17.43;76.47;102368.22;5012187;28;20026;-84